sensor_id;sensor_type;location;lat;lon;timestamp;pressure;altitude;pressure_sealevel;temperature;humidity
45441;BME280;31189;38.790;-77.084;2023-08-20T00:02:11;101435.53;;;31.17;28.94
45441;BME280;31189;38.790;-77.084;2023-08-20T00:04:36;101438.12;;;31.11;29.36
45441;BME280;31189;38.790;-77.084;2023-08-20T00:07:02;101434.62;;;30.70;29.45
45441;BME280;31189;38.790;-77.084;2023-08-20T00:09:26;101437.86;;;30.71;28.97
45441;BME280;31189;38.790;-77.084;2023-08-20T00:11:52;101439.32;;;30.80;28.63
45441;BME280;31189;38.790;-77.084;2023-08-20T00:14:17;101440.09;;;30.66;28.88
45441;BME280;31189;38.790;-77.084;2023-08-20T00:16:43;101438.85;;;30.70;28.73
45441;BME280;31189;38.790;-77.084;2023-08-20T00:19:09;101442.33;;;30.90;29.27
45441;BME280;31189;38.790;-77.084;2023-08-20T00:21:34;101447.64;;;30.89;29.55
45441;BME280;31189;38.790;-77.084;2023-08-20T00:24:00;101447.57;;;30.75;29.99
45441;BME280;31189;38.790;-77.084;2023-08-20T00:26:25;101452.42;;;30.73;29.94
45441;BME280;31189;38.790;-77.084;2023-08-20T00:28:49;101459.92;;;30.80;29.22
45441;BME280;31189;38.790;-77.084;2023-08-20T00:31:15;101467.97;;;30.90;30.72
45441;BME280;31189;38.790;-77.084;2023-08-20T00:33:40;101473.73;;;30.72;30.66
45441;BME280;31189;38.790;-77.084;2023-08-20T00:36:06;101477.63;;;30.75;30.93
45441;BME280;31189;38.790;-77.084;2023-08-20T00:38:31;101479.48;;;30.42;31.36
45441;BME280;31189;38.790;-77.084;2023-08-20T00:40:56;101486.53;;;30.39;32.25
45441;BME280;31189;38.790;-77.084;2023-08-20T00:43:22;101493.80;;;30.61;32.70
45441;BME280;31189;38.790;-77.084;2023-08-20T00:45:48;101494.62;;;30.49;32.67
45441;BME280;31189;38.790;-77.084;2023-08-20T00:48:13;101498.06;;;30.40;32.60
45441;BME280;31189;38.790;-77.084;2023-08-20T00:50:39;101503.90;;;30.14;32.70
45441;BME280;31189;38.790;-77.084;2023-08-20T00:53:03;101511.80;;;29.53;33.22
45441;BME280;31189;38.790;-77.084;2023-08-20T00:55:28;101515.24;;;29.54;33.11
45441;BME280;31189;38.790;-77.084;2023-08-20T00:57:54;101514.27;;;29.91;33.38
45441;BME280;31189;38.790;-77.084;2023-08-20T01:00:20;101513.77;;;29.26;33.88
45441;BME280;31189;38.790;-77.084;2023-08-20T01:02:45;101516.97;;;29.64;34.22
45441;BME280;31189;38.790;-77.084;2023-08-20T01:05:12;101517.36;;;29.61;34.16
45441;BME280;31189;38.790;-77.084;2023-08-20T01:07:43;101520.08;;;29.58;34.45
45441;BME280;31189;38.790;-77.084;2023-08-20T01:10:07;101523.61;;;29.28;34.60
45441;BME280;31189;38.790;-77.084;2023-08-20T01:12:26;101523.89;;;29.44;34.51
45441;BME280;31189;38.790;-77.084;2023-08-20T01:14:51;101526.20;;;29.23;35.05
45441;BME280;31189;38.790;-77.084;2023-08-20T01:17:17;101525.50;;;29.17;34.91
45441;BME280;31189;38.790;-77.084;2023-08-20T01:19:42;101528.28;;;29.09;35.04
45441;BME280;31189;38.790;-77.084;2023-08-20T01:22:28;101530.67;;;29.10;35.29
45441;BME280;31189;38.790;-77.084;2023-08-20T01:24:44;101532.23;;;28.73;35.85
45441;BME280;31189;38.790;-77.084;2023-08-20T01:27:08;101534.91;;;28.76;35.82
45441;BME280;31189;38.790;-77.084;2023-08-20T01:29:25;101531.54;;;28.67;35.74
45441;BME280;31189;38.790;-77.084;2023-08-20T01:31:51;101528.93;;;28.63;35.86
45441;BME280;31189;38.790;-77.084;2023-08-20T01:34:16;101531.77;;;29.21;36.24
45441;BME280;31189;38.790;-77.084;2023-08-20T01:36:41;101534.71;;;29.24;36.51
45441;BME280;31189;38.790;-77.084;2023-08-20T01:39:07;101538.20;;;29.15;36.06
45441;BME280;31189;38.790;-77.084;2023-08-20T01:41:33;101544.29;;;29.10;36.80
45441;BME280;31189;38.790;-77.084;2023-08-20T01:43:58;101551.68;;;29.04;37.50
45441;BME280;31189;38.790;-77.084;2023-08-20T01:46:23;101551.83;;;28.73;37.30
45441;BME280;31189;38.790;-77.084;2023-08-20T01:48:48;101555.72;;;28.80;36.95
45441;BME280;31189;38.790;-77.084;2023-08-20T01:51:14;101557.66;;;28.71;37.02
45441;BME280;31189;38.790;-77.084;2023-08-20T01:53:39;101560.53;;;28.70;36.40
45441;BME280;31189;38.790;-77.084;2023-08-20T01:56:11;101562.22;;;28.68;37.01
45441;BME280;31189;38.790;-77.084;2023-08-20T01:58:31;101564.19;;;28.80;36.57
45441;BME280;31189;38.790;-77.084;2023-08-20T02:00:56;101567.00;;;28.51;36.98
45441;BME280;31189;38.790;-77.084;2023-08-20T02:03:21;101565.31;;;28.34;37.32
45441;BME280;31189;38.790;-77.084;2023-08-20T02:05:47;101569.01;;;28.49;37.46
45441;BME280;31189;38.790;-77.084;2023-08-20T02:08:12;101567.59;;;28.15;37.28
45441;BME280;31189;38.790;-77.084;2023-08-20T02:10:38;101565.12;;;28.03;37.40
45441;BME280;31189;38.790;-77.084;2023-08-20T02:13:03;101563.51;;;28.31;37.17
45441;BME280;31189;38.790;-77.084;2023-08-20T02:15:29;101567.64;;;28.46;37.72
45441;BME280;31189;38.790;-77.084;2023-08-20T02:17:54;101565.03;;;28.21;38.00
45441;BME280;31189;38.790;-77.084;2023-08-20T02:20:19;101570.20;;;28.14;38.25
45441;BME280;31189;38.790;-77.084;2023-08-20T02:22:45;101571.79;;;27.97;38.05
45441;BME280;31189;38.790;-77.084;2023-08-20T02:25:10;101571.07;;;28.01;38.64
45441;BME280;31189;38.790;-77.084;2023-08-20T02:27:35;101573.56;;;27.65;39.08
45441;BME280;31189;38.790;-77.084;2023-08-20T02:30:00;101575.59;;;28.20;38.74
45441;BME280;31189;38.790;-77.084;2023-08-20T02:32:26;101577.37;;;27.92;39.25
45441;BME280;31189;38.790;-77.084;2023-08-20T02:34:52;101579.10;;;28.15;39.01
45441;BME280;31189;38.790;-77.084;2023-08-20T02:37:17;101585.36;;;27.59;38.89
45441;BME280;31189;38.790;-77.084;2023-08-20T02:39:42;101584.58;;;28.16;38.50
45441;BME280;31189;38.790;-77.084;2023-08-20T02:42:07;101584.16;;;27.66;38.98
45441;BME280;31189;38.790;-77.084;2023-08-20T02:44:33;101583.57;;;28.04;39.03
45441;BME280;31189;38.790;-77.084;2023-08-20T02:46:58;101584.57;;;27.84;39.25
45441;BME280;31189;38.790;-77.084;2023-08-20T02:49:23;101586.11;;;28.13;39.11
45441;BME280;31189;38.790;-77.084;2023-08-20T02:51:49;101584.74;;;27.33;39.23
45441;BME280;31189;38.790;-77.084;2023-08-20T02:54:14;101584.00;;;27.32;39.58
45441;BME280;31189;38.790;-77.084;2023-08-20T02:56:39;101583.67;;;27.41;39.97
45441;BME280;31189;38.790;-77.084;2023-08-20T02:59:05;101591.24;;;27.24;40.74
45441;BME280;31189;38.790;-77.084;2023-08-20T03:01:30;101598.28;;;27.66;40.71
45441;BME280;31189;38.790;-77.084;2023-08-20T03:03:56;101600.76;;;27.60;40.00
45441;BME280;31189;38.790;-77.084;2023-08-20T03:06:21;101603.85;;;27.69;40.03
45441;BME280;31189;38.790;-77.084;2023-08-20T03:08:47;101605.87;;;26.79;40.27
45441;BME280;31189;38.790;-77.084;2023-08-20T03:11:12;101608.76;;;27.21;40.58
45441;BME280;31189;38.790;-77.084;2023-08-20T03:13:38;101609.95;;;27.41;41.07
45441;BME280;31189;38.790;-77.084;2023-08-20T03:16:03;101611.70;;;27.10;40.65
45441;BME280;31189;38.790;-77.084;2023-08-20T03:18:29;101610.03;;;27.00;40.77
45441;BME280;31189;38.790;-77.084;2023-08-20T03:20:55;101611.70;;;26.80;41.47
45441;BME280;31189;38.790;-77.084;2023-08-20T03:23:20;101611.02;;;26.85;41.63
45441;BME280;31189;38.790;-77.084;2023-08-20T03:25:45;101606.38;;;26.64;41.24
45441;BME280;31189;38.790;-77.084;2023-08-20T03:28:11;101603.15;;;26.56;41.69
45441;BME280;31189;38.790;-77.084;2023-08-20T03:30:37;101607.35;;;26.60;42.09
45441;BME280;31189;38.790;-77.084;2023-08-20T03:33:02;101609.96;;;26.75;42.16
45441;BME280;31189;38.790;-77.084;2023-08-20T03:35:27;101610.88;;;26.45;42.61
45441;BME280;31189;38.790;-77.084;2023-08-20T03:37:53;101611.54;;;26.62;42.03
45441;BME280;31189;38.790;-77.084;2023-08-20T03:40:19;101611.89;;;26.96;41.97
45441;BME280;31189;38.790;-77.084;2023-08-20T03:42:44;101611.27;;;26.77;41.67
45441;BME280;31189;38.790;-77.084;2023-08-20T03:45:10;101609.61;;;26.51;42.13
45441;BME280;31189;38.790;-77.084;2023-08-20T03:47:35;101610.05;;;26.43;42.25
45441;BME280;31189;38.790;-77.084;2023-08-20T03:50:01;101610.71;;;26.10;43.70
45441;BME280;31189;38.790;-77.084;2023-08-20T03:52:26;101608.54;;;26.39;43.75
45441;BME280;31189;38.790;-77.084;2023-08-20T03:54:51;101606.36;;;26.62;43.82
45441;BME280;31189;38.790;-77.084;2023-08-20T03:57:17;101610.90;;;26.40;43.68
45441;BME280;31189;38.790;-77.084;2023-08-20T03:59:43;101608.52;;;26.47;43.06
45441;BME280;31189;38.790;-77.084;2023-08-20T04:02:08;101608.37;;;26.36;43.14
45441;BME280;31189;38.790;-77.084;2023-08-20T04:04:33;101613.62;;;26.76;42.58
45441;BME280;31189;38.790;-77.084;2023-08-20T04:06:58;101617.51;;;27.12;42.60
45441;BME280;31189;38.790;-77.084;2023-08-20T04:09:23;101619.42;;;26.56;42.77
45441;BME280;31189;38.790;-77.084;2023-08-20T04:11:49;101620.03;;;26.48;42.92
45441;BME280;31189;38.790;-77.084;2023-08-20T04:14:14;101622.65;;;26.24;43.39
45441;BME280;31189;38.790;-77.084;2023-08-20T04:16:40;101621.61;;;26.63;43.27
45441;BME280;31189;38.790;-77.084;2023-08-20T04:19:05;101627.09;;;25.66;44.99
45441;BME280;31189;38.790;-77.084;2023-08-20T04:21:31;101623.61;;;26.83;42.62
45441;BME280;31189;38.790;-77.084;2023-08-20T04:23:56;101627.77;;;26.48;43.12
45441;BME280;31189;38.790;-77.084;2023-08-20T04:26:22;101633.64;;;25.56;44.40
45441;BME280;31189;38.790;-77.084;2023-08-20T04:28:47;101628.08;;;26.52;43.07
45441;BME280;31189;38.790;-77.084;2023-08-20T04:31:12;101627.57;;;26.51;43.22
45441;BME280;31189;38.790;-77.084;2023-08-20T04:33:38;101633.64;;;26.05;43.59
45441;BME280;31189;38.790;-77.084;2023-08-20T04:36:04;101633.05;;;25.74;44.51
45441;BME280;31189;38.790;-77.084;2023-08-20T04:38:29;101633.44;;;25.41;45.21
45441;BME280;31189;38.790;-77.084;2023-08-20T04:40:54;101633.84;;;25.11;46.24
45441;BME280;31189;38.790;-77.084;2023-08-20T04:43:19;101638.67;;;24.64;47.50
45441;BME280;31189;38.790;-77.084;2023-08-20T04:45:45;101642.33;;;24.94;46.88
45441;BME280;31189;38.790;-77.084;2023-08-20T04:48:11;101637.36;;;25.09;46.46
45441;BME280;31189;38.790;-77.084;2023-08-20T04:50:36;101637.56;;;25.17;45.66
45441;BME280;31189;38.790;-77.084;2023-08-20T04:53:01;101638.05;;;25.61;45.98
45441;BME280;31189;38.790;-77.084;2023-08-20T04:55:27;101636.35;;;25.19;47.07
45441;BME280;31189;38.790;-77.084;2023-08-20T04:57:52;101633.19;;;25.31;46.83
45441;BME280;31189;38.790;-77.084;2023-08-20T05:00:17;101629.96;;;25.33;47.23
45441;BME280;31189;38.790;-77.084;2023-08-20T05:02:42;101632.32;;;24.34;48.24
45441;BME280;31189;38.790;-77.084;2023-08-20T05:05:09;101637.82;;;25.21;46.05
45441;BME280;31189;38.790;-77.084;2023-08-20T05:07:33;101637.97;;;25.06;46.79
45441;BME280;31189;38.790;-77.084;2023-08-20T05:09:59;101636.79;;;25.13;46.77
45441;BME280;31189;38.790;-77.084;2023-08-20T05:12:24;101633.50;;;25.34;46.75
45441;BME280;31189;38.790;-77.084;2023-08-20T05:14:50;101641.03;;;25.32;45.99
45441;BME280;31189;38.790;-77.084;2023-08-20T05:17:15;101639.58;;;25.36;45.94
45441;BME280;31189;38.790;-77.084;2023-08-20T05:19:41;101637.09;;;26.15;45.90
45441;BME280;31189;38.790;-77.084;2023-08-20T05:22:06;101638.00;;;25.69;46.50
45441;BME280;31189;38.790;-77.084;2023-08-20T05:24:32;101636.12;;;25.74;46.37
45441;BME280;31189;38.790;-77.084;2023-08-20T05:27:07;101632.21;;;25.52;45.47
45441;BME280;31189;38.790;-77.084;2023-08-20T05:29:22;101627.31;;;25.40;46.15
45441;BME280;31189;38.790;-77.084;2023-08-20T05:31:48;101625.92;;;25.46;46.74
45441;BME280;31189;38.790;-77.084;2023-08-20T05:34:13;101625.77;;;25.74;46.72
45441;BME280;31189;38.790;-77.084;2023-08-20T05:36:38;101627.63;;;25.58;46.61
45441;BME280;31189;38.790;-77.084;2023-08-20T05:39:04;101627.12;;;25.62;46.18
45441;BME280;31189;38.790;-77.084;2023-08-20T05:41:30;101626.67;;;25.89;46.16
45441;BME280;31189;38.790;-77.084;2023-08-20T05:43:55;101627.47;;;25.61;46.76
45441;BME280;31189;38.790;-77.084;2023-08-20T05:46:20;101630.02;;;25.75;46.00
45441;BME280;31189;38.790;-77.084;2023-08-20T05:48:45;101627.34;;;25.47;45.88
45441;BME280;31189;38.790;-77.084;2023-08-20T05:51:10;101631.20;;;25.24;46.93
45441;BME280;31189;38.790;-77.084;2023-08-20T05:53:36;101632.92;;;24.79;47.58
45441;BME280;31189;38.790;-77.084;2023-08-20T05:56:02;101632.09;;;25.17;47.56
45441;BME280;31189;38.790;-77.084;2023-08-20T05:58:28;101634.37;;;24.51;48.91
45441;BME280;31189;38.790;-77.084;2023-08-20T06:00:53;101634.19;;;24.39;49.42
45441;BME280;31189;38.790;-77.084;2023-08-20T06:03:18;101632.58;;;24.49;49.26
45441;BME280;31189;38.790;-77.084;2023-08-20T06:05:43;101630.56;;;24.52;49.37
45441;BME280;31189;38.790;-77.084;2023-08-20T06:08:08;101630.24;;;24.72;49.07
45441;BME280;31189;38.790;-77.084;2023-08-20T06:10:34;101625.73;;;24.97;48.67
45441;BME280;31189;38.790;-77.084;2023-08-20T06:12:59;101628.78;;;25.04;48.60
45441;BME280;31189;38.790;-77.084;2023-08-20T06:15:24;101630.90;;;25.07;47.68
45441;BME280;31189;38.790;-77.084;2023-08-20T06:17:49;101627.76;;;25.22;47.55
45441;BME280;31189;38.790;-77.084;2023-08-20T06:20:15;101627.37;;;25.28;47.70
45441;BME280;31189;38.790;-77.084;2023-08-20T06:22:40;101630.54;;;25.44;47.13
45441;BME280;31189;38.790;-77.084;2023-08-20T06:25:06;101631.79;;;25.29;46.92
45441;BME280;31189;38.790;-77.084;2023-08-20T06:27:31;101631.04;;;25.36;47.33
45441;BME280;31189;38.790;-77.084;2023-08-20T06:29:56;101631.12;;;25.29;47.47
45441;BME280;31189;38.790;-77.084;2023-08-20T06:32:22;101634.31;;;24.78;48.60
45441;BME280;31189;38.790;-77.084;2023-08-20T06:34:47;101634.02;;;24.87;48.68
45441;BME280;31189;38.790;-77.084;2023-08-20T06:37:12;101627.77;;;25.16;48.21
45441;BME280;31189;38.790;-77.084;2023-08-20T06:39:37;101629.19;;;25.17;47.65
45441;BME280;31189;38.790;-77.084;2023-08-20T06:42:03;101628.84;;;24.78;47.69
45441;BME280;31189;38.790;-77.084;2023-08-20T06:44:29;101634.69;;;24.47;48.54
45441;BME280;31189;38.790;-77.084;2023-08-20T06:46:54;101633.94;;;24.65;49.16
45441;BME280;31189;38.790;-77.084;2023-08-20T06:49:19;101635.78;;;24.98;49.16
45441;BME280;31189;38.790;-77.084;2023-08-20T06:51:44;101634.88;;;25.00;48.57
45441;BME280;31189;38.790;-77.084;2023-08-20T06:54:09;101635.43;;;24.64;48.46
45441;BME280;31189;38.790;-77.084;2023-08-20T06:56:35;101634.40;;;25.37;47.44
45441;BME280;31189;38.790;-77.084;2023-08-20T06:59:00;101640.22;;;24.65;48.39
45441;BME280;31189;38.790;-77.084;2023-08-20T07:01:26;101639.11;;;24.64;48.40
45441;BME280;31189;38.790;-77.084;2023-08-20T07:03:51;101638.49;;;25.10;48.37
45441;BME280;31189;38.790;-77.084;2023-08-20T07:06:17;101635.28;;;24.40;48.94
45441;BME280;31189;38.790;-77.084;2023-08-20T07:08:42;101641.89;;;24.21;49.46
45441;BME280;31189;38.790;-77.084;2023-08-20T07:11:08;101641.46;;;24.52;49.24
45441;BME280;31189;38.790;-77.084;2023-08-20T07:13:33;101646.01;;;24.18;49.52
45441;BME280;31189;38.790;-77.084;2023-08-20T07:15:59;101646.97;;;24.39;49.94
45441;BME280;31189;38.790;-77.084;2023-08-20T07:18:25;101646.40;;;24.12;49.70
45441;BME280;31189;38.790;-77.084;2023-08-20T07:20:50;101646.10;;;24.06;49.79
45441;BME280;31189;38.790;-77.084;2023-08-20T07:23:15;101644.79;;;24.00;50.55
45441;BME280;31189;38.790;-77.084;2023-08-20T07:25:41;101646.70;;;23.80;51.88
45441;BME280;31189;38.790;-77.084;2023-08-20T07:28:07;101643.48;;;24.08;51.35
45441;BME280;31189;38.790;-77.084;2023-08-20T07:30:31;101644.50;;;24.16;50.73
45441;BME280;31189;38.790;-77.084;2023-08-20T07:32:57;101643.88;;;24.21;50.61
45441;BME280;31189;38.790;-77.084;2023-08-20T07:35:22;101646.01;;;24.05;50.75
45441;BME280;31189;38.790;-77.084;2023-08-20T07:37:47;101648.22;;;24.23;51.02
45441;BME280;31189;38.790;-77.084;2023-08-20T07:40:13;101652.51;;;24.31;51.19
45441;BME280;31189;38.790;-77.084;2023-08-20T07:42:39;101658.49;;;24.78;51.26
45441;BME280;31189;38.790;-77.084;2023-08-20T07:45:04;101657.35;;;24.59;50.63
45441;BME280;31189;38.790;-77.084;2023-08-20T07:47:29;101660.84;;;24.76;50.23
45441;BME280;31189;38.790;-77.084;2023-08-20T07:49:54;101659.38;;;24.68;49.06
45441;BME280;31189;38.790;-77.084;2023-08-20T07:52:20;101662.16;;;24.14;50.02
45441;BME280;31189;38.790;-77.084;2023-08-20T07:54:45;101659.66;;;23.91;50.44
45441;BME280;31189;38.790;-77.084;2023-08-20T07:57:11;101662.49;;;23.79;50.89
45441;BME280;31189;38.790;-77.084;2023-08-20T07:59:37;101667.81;;;23.86;51.31
45441;BME280;31189;38.790;-77.084;2023-08-20T08:02:02;101669.17;;;23.90;51.72
45441;BME280;31189;38.790;-77.084;2023-08-20T08:04:27;101673.32;;;24.02;51.80
45441;BME280;31189;38.790;-77.084;2023-08-20T08:06:52;101677.33;;;24.15;51.44
45441;BME280;31189;38.790;-77.084;2023-08-20T08:09:19;101676.95;;;24.14;51.32
45441;BME280;31189;38.790;-77.084;2023-08-20T08:11:43;101678.32;;;24.21;50.59
45441;BME280;31189;38.790;-77.084;2023-08-20T08:14:08;101680.44;;;24.40;50.35
45441;BME280;31189;38.790;-77.084;2023-08-20T08:16:34;101679.01;;;24.05;50.47
45441;BME280;31189;38.790;-77.084;2023-08-20T08:18:59;101677.51;;;24.33;50.96
45441;BME280;31189;38.790;-77.084;2023-08-20T08:21:25;101675.83;;;24.09;50.89
45441;BME280;31189;38.790;-77.084;2023-08-20T08:23:50;101676.48;;;24.08;51.07
45441;BME280;31189;38.790;-77.084;2023-08-20T08:26:15;101676.30;;;24.68;50.34
45441;BME280;31189;38.790;-77.084;2023-08-20T08:28:41;101678.36;;;24.17;50.12
45441;BME280;31189;38.790;-77.084;2023-08-20T08:31:06;101679.48;;;24.28;49.62
45441;BME280;31189;38.790;-77.084;2023-08-20T08:33:32;101682.68;;;24.12;50.05
45441;BME280;31189;38.790;-77.084;2023-08-20T08:35:57;101684.76;;;24.63;50.00
45441;BME280;31189;38.790;-77.084;2023-08-20T08:38:22;101685.30;;;24.53;49.82
45441;BME280;31189;38.790;-77.084;2023-08-20T08:40:48;101690.66;;;24.66;49.23
45441;BME280;31189;38.790;-77.084;2023-08-20T08:43:13;101688.42;;;24.35;49.56
45441;BME280;31189;38.790;-77.084;2023-08-20T08:45:38;101688.11;;;24.10;49.93
45441;BME280;31189;38.790;-77.084;2023-08-20T08:48:05;101686.55;;;24.21;50.53
45441;BME280;31189;38.790;-77.084;2023-08-20T08:50:29;101691.28;;;24.40;50.73
45441;BME280;31189;38.790;-77.084;2023-08-20T08:52:55;101696.87;;;24.63;50.81
45441;BME280;31189;38.790;-77.084;2023-08-20T08:55:20;101694.01;;;24.45;49.66
45441;BME280;31189;38.790;-77.084;2023-08-20T08:57:45;101694.00;;;24.14;49.89
45441;BME280;31189;38.790;-77.084;2023-08-20T09:00:12;101690.61;;;23.92;49.88
45441;BME280;31189;38.790;-77.084;2023-08-20T09:02:36;101687.61;;;24.10;50.30
45441;BME280;31189;38.790;-77.084;2023-08-20T09:05:02;101687.81;;;24.10;51.09
45441;BME280;31189;38.790;-77.084;2023-08-20T09:07:27;101689.94;;;24.34;50.50
45441;BME280;31189;38.790;-77.084;2023-08-20T09:09:58;101693.89;;;24.60;50.35
45441;BME280;31189;38.790;-77.084;2023-08-20T09:12:20;101701.15;;;24.65;50.42
45441;BME280;31189;38.790;-77.084;2023-08-20T09:14:46;101706.22;;;24.52;50.25
45441;BME280;31189;38.790;-77.084;2023-08-20T09:17:09;101712.77;;;24.41;50.27
45441;BME280;31189;38.790;-77.084;2023-08-20T09:19:36;101720.17;;;24.86;49.83
45441;BME280;31189;38.790;-77.084;2023-08-20T09:22:00;101721.85;;;24.46;49.51
45441;BME280;31189;38.790;-77.084;2023-08-20T09:24:31;101725.52;;;24.02;49.11
45441;BME280;31189;38.790;-77.084;2023-08-20T09:26:50;101723.78;;;23.60;50.28
45441;BME280;31189;38.790;-77.084;2023-08-20T09:29:15;101724.99;;;23.87;50.93
45441;BME280;31189;38.790;-77.084;2023-08-20T09:31:41;101727.93;;;22.54;52.84
45441;BME280;31189;38.790;-77.084;2023-08-20T09:34:06;101729.63;;;23.80;50.86
45441;BME280;31189;38.790;-77.084;2023-08-20T09:36:32;101725.62;;;23.33;51.47
45441;BME280;31189;38.790;-77.084;2023-08-20T09:38:57;101723.25;;;23.56;51.29
45441;BME280;31189;38.790;-77.084;2023-08-20T09:41:23;101717.70;;;23.46;51.81
45441;BME280;31189;38.790;-77.084;2023-08-20T09:43:48;101716.75;;;23.80;51.76
45441;BME280;31189;38.790;-77.084;2023-08-20T09:46:14;101716.90;;;23.71;51.50
45441;BME280;31189;38.790;-77.084;2023-08-20T09:48:38;101718.23;;;24.07;51.61
45441;BME280;31189;38.790;-77.084;2023-08-20T09:51:05;101722.46;;;24.04;50.98
45441;BME280;31189;38.790;-77.084;2023-08-20T09:53:35;101723.87;;;23.97;50.81
45441;BME280;31189;38.790;-77.084;2023-08-20T09:55:56;101726.04;;;24.32;50.00
45441;BME280;31189;38.790;-77.084;2023-08-20T09:58:20;101726.70;;;24.32;50.23
45441;BME280;31189;38.790;-77.084;2023-08-20T10:00:45;101728.12;;;23.71;50.55
45441;BME280;31189;38.790;-77.084;2023-08-20T10:03:10;101732.33;;;24.17;50.28
45441;BME280;31189;38.790;-77.084;2023-08-20T10:05:36;101730.58;;;24.53;49.40
45441;BME280;31189;38.790;-77.084;2023-08-20T10:08:01;101733.88;;;24.83;48.81
45441;BME280;31189;38.790;-77.084;2023-08-20T10:10:27;101735.00;;;24.80;49.04
45441;BME280;31189;38.790;-77.084;2023-08-20T10:12:52;101739.81;;;24.75;49.26
45441;BME280;31189;38.790;-77.084;2023-08-20T10:15:17;101748.38;;;24.74;49.69
45441;BME280;31189;38.790;-77.084;2023-08-20T10:17:43;101755.97;;;24.60;49.60
45441;BME280;31189;38.790;-77.084;2023-08-20T10:20:09;101763.01;;;24.34;49.83
45441;BME280;31189;38.790;-77.084;2023-08-20T10:22:36;101766.57;;;24.25;49.40
45441;BME280;31189;38.790;-77.084;2023-08-20T10:24:59;101765.62;;;24.50;48.51
45441;BME280;31189;38.790;-77.084;2023-08-20T10:27:26;101764.68;;;24.23;49.04
45441;BME280;31189;38.790;-77.084;2023-08-20T10:29:49;101764.58;;;24.11;49.50
45441;BME280;31189;38.790;-77.084;2023-08-20T10:32:15;101769.74;;;24.25;49.95
45441;BME280;31189;38.790;-77.084;2023-08-20T10:34:49;101770.25;;;24.38;49.55
45441;BME280;31189;38.790;-77.084;2023-08-20T10:37:10;101769.30;;;24.14;49.28
45441;BME280;31189;38.790;-77.084;2023-08-20T10:39:31;101771.74;;;24.47;48.95
45441;BME280;31189;38.790;-77.084;2023-08-20T10:42:11;101771.16;;;24.27;49.44
45441;BME280;31189;38.790;-77.084;2023-08-20T10:44:24;101773.03;;;24.52;50.12
45441;BME280;31189;38.790;-77.084;2023-08-20T10:46:50;101779.20;;;24.18;49.80
45441;BME280;31189;38.790;-77.084;2023-08-20T10:49:17;101783.90;;;24.19;49.34
45441;BME280;31189;38.790;-77.084;2023-08-20T10:51:38;101784.13;;;23.72;49.34
45441;BME280;31189;38.790;-77.084;2023-08-20T10:54:05;101789.53;;;24.05;50.10
45441;BME280;31189;38.790;-77.084;2023-08-20T10:56:40;101791.08;;;23.79;50.14
45441;BME280;31189;38.790;-77.084;2023-08-20T10:58:54;101792.89;;;24.18;49.41
45441;BME280;31189;38.790;-77.084;2023-08-20T11:01:21;101789.10;;;23.78;49.76
45441;BME280;31189;38.790;-77.084;2023-08-20T11:03:46;101788.14;;;23.78;50.33
45441;BME280;31189;38.790;-77.084;2023-08-20T11:06:11;101785.27;;;23.51;51.04
45441;BME280;31189;38.790;-77.084;2023-08-20T11:08:37;101787.13;;;23.76;51.67
45441;BME280;31189;38.790;-77.084;2023-08-20T11:11:02;101790.90;;;24.29;51.80
45441;BME280;31189;38.790;-77.084;2023-08-20T11:13:27;101793.91;;;24.35;51.57
45441;BME280;31189;38.790;-77.084;2023-08-20T11:15:53;101794.18;;;24.61;51.54
45441;BME280;31189;38.790;-77.084;2023-08-20T11:18:18;101797.16;;;24.53;50.77
45441;BME280;31189;38.790;-77.084;2023-08-20T11:20:44;101799.79;;;24.66;50.84
45441;BME280;31189;38.790;-77.084;2023-08-20T11:23:09;101801.03;;;24.79;50.50
45441;BME280;31189;38.790;-77.084;2023-08-20T11:25:34;101805.91;;;24.77;50.74
45441;BME280;31189;38.790;-77.084;2023-08-20T11:27:59;101804.73;;;24.75;50.66
45441;BME280;31189;38.790;-77.084;2023-08-20T11:30:29;101805.73;;;24.55;50.08
45441;BME280;31189;38.790;-77.084;2023-08-20T11:32:50;101810.73;;;24.53;50.80
45441;BME280;31189;38.790;-77.084;2023-08-20T11:35:15;101816.18;;;24.23;51.80
45441;BME280;31189;38.790;-77.084;2023-08-20T11:37:41;101816.93;;;23.77;52.90
45441;BME280;31189;38.790;-77.084;2023-08-20T11:40:08;101819.35;;;24.36;52.70
45441;BME280;31189;38.790;-77.084;2023-08-20T11:42:31;101820.96;;;24.73;52.72
45441;BME280;31189;38.790;-77.084;2023-08-20T11:44:57;101825.14;;;24.84;53.13
45441;BME280;31189;38.790;-77.084;2023-08-20T11:47:22;101824.69;;;25.00;51.41
45441;BME280;31189;38.790;-77.084;2023-08-20T11:49:48;101822.98;;;25.14;50.92
45441;BME280;31189;38.790;-77.084;2023-08-20T11:52:13;101822.82;;;25.37;50.27
45441;BME280;31189;38.790;-77.084;2023-08-20T11:54:38;101823.23;;;25.38;48.92
45441;BME280;31189;38.790;-77.084;2023-08-20T11:57:05;101822.05;;;25.65;48.55
45441;BME280;31189;38.790;-77.084;2023-08-20T11:59:29;101826.69;;;25.66;47.64
45441;BME280;31189;38.790;-77.084;2023-08-20T12:01:57;101829.09;;;25.90;46.95
45441;BME280;31189;38.790;-77.084;2023-08-20T12:04:24;101830.03;;;25.98;47.16
45441;BME280;31189;38.790;-77.084;2023-08-20T12:09:20;101828.26;;;26.20;46.37
45441;BME280;31189;38.790;-77.084;2023-08-20T12:11:37;101832.92;;;26.36;46.41
45441;BME280;31189;38.790;-77.084;2023-08-20T12:14:02;101835.00;;;26.54;45.33
45441;BME280;31189;38.790;-77.084;2023-08-20T12:16:28;101834.48;;;26.51;45.74
45441;BME280;31189;38.790;-77.084;2023-08-20T12:18:53;101838.74;;;26.74;46.01
45441;BME280;31189;38.790;-77.084;2023-08-20T12:21:19;101841.87;;;27.00;45.45
45441;BME280;31189;38.790;-77.084;2023-08-20T12:23:44;101842.87;;;27.25;45.45